createdAt,value
2022-10-30T00:00:50.694Z,17.10
2022-10-30T00:03:18.210Z,14.80
2022-10-30T00:05:47.513Z,16.93
2022-10-30T00:08:16.127Z,14.57
2022-10-30T00:10:43.705Z,16.40
2022-10-30T00:13:11.272Z,14.30
2022-10-30T00:15:38.800Z,14.40
2022-10-30T00:18:06.636Z,17.00
2022-10-30T00:20:35.699Z,16.07
2022-10-30T00:23:05.768Z,19.80
2022-10-30T00:25:34.405Z,13.73
2022-10-30T00:28:05.607Z,18.27
2022-10-30T00:30:32.880Z,17.13
2022-10-30T00:33:00.047Z,16.30
2022-10-30T00:35:27.105Z,15.83
2022-10-30T00:37:54.069Z,11.83
2022-10-30T00:40:21.397Z,16.23
2022-10-30T00:42:48.232Z,16.37
2022-10-30T00:45:18.110Z,13.27
2022-10-30T00:47:55.058Z,14.50
2022-10-30T00:50:30.743Z,12.83
2022-10-30T00:53:01.951Z,17.93
2022-10-30T00:55:40.286Z,16.10
2022-10-30T00:58:11.522Z,14.20
2022-10-30T01:00:42.245Z,11.87
2022-10-30T01:03:09.733Z,13.17
2022-10-30T01:05:37.010Z,12.43
2022-10-30T01:08:03.816Z,19.10
2022-10-30T01:10:30.649Z,11.23
2022-10-30T01:12:59.400Z,11.90
2022-10-30T01:15:40.209Z,12.47
2022-10-30T01:18:34.699Z,15.87
2022-10-30T01:21:12.074Z,13.33
2022-10-30T01:23:54.018Z,10.93
2022-10-30T01:26:39.848Z,16.20
2022-10-30T01:29:29.303Z,17.37
2022-10-30T01:32:06.893Z,13.57
2022-10-30T01:34:57.823Z,13.50
2022-10-30T01:37:42.242Z,20.50
2022-10-30T01:40:13.198Z,14.77
2022-10-30T01:42:48.991Z,13.20
2022-10-30T01:45:33.761Z,16.13
2022-10-30T01:48:09.139Z,12.13
2022-10-30T01:50:43.419Z,17.43
2022-10-30T01:53:33.596Z,12.90
2022-10-30T01:56:28.936Z,15.60
2022-10-30T01:59:25.603Z,17.73
2022-10-30T02:01:54.752Z,18.60
2022-10-30T02:04:21.880Z,18.13
2022-10-30T02:06:48.722Z,15.33
2022-10-30T02:09:19.048Z,18.43
2022-10-30T02:11:46.959Z,13.80
2022-10-30T02:14:19.839Z,15.17
2022-10-30T02:16:50.290Z,16.60
2022-10-30T02:19:17.624Z,16.10
2022-10-30T02:21:44.541Z,16.27
2022-10-30T02:24:11.241Z,14.13
2022-10-30T02:26:39.028Z,14.43
2022-10-30T02:29:05.971Z,15.43
2022-10-30T02:31:34.570Z,16.90
2022-10-30T02:34:01.412Z,15.27
2022-10-30T02:36:28.148Z,16.07
2022-10-30T02:38:55.330Z,14.90
2022-10-30T02:41:23.208Z,17.87
2022-10-30T02:43:51.704Z,18.50
2022-10-30T02:46:18.430Z,17.23
2022-10-30T02:48:45.205Z,14.23
2022-10-30T02:51:12.405Z,13.27
2022-10-30T02:53:39.191Z,19.10
2022-10-30T02:56:10.780Z,19.13
2022-10-30T02:58:37.485Z,17.03
2022-10-30T03:01:12.093Z,16.20
2022-10-30T03:03:39.660Z,18.40
2022-10-30T03:06:09.734Z,20.27
2022-10-30T03:08:36.976Z,15.30
2022-10-30T03:11:09.546Z,16.73
2022-10-30T03:13:37.490Z,14.77
2022-10-30T03:16:09.659Z,19.00
2022-10-30T03:18:36.923Z,16.23
2022-10-30T03:21:06.198Z,12.33
2022-10-30T03:23:33.243Z,15.00
2022-10-30T03:26:00.224Z,21.30
2022-10-30T03:28:28.838Z,18.43
2022-10-30T03:31:07.523Z,17.83
2022-10-30T03:33:34.940Z,14.93
2022-10-30T03:36:02.936Z,20.23
2022-10-30T03:38:29.985Z,16.17
2022-10-30T03:40:56.819Z,16.63
2022-10-30T03:43:23.569Z,17.23
2022-10-30T03:45:53.000Z,15.73
2022-10-30T03:48:24.172Z,20.43
2022-10-30T03:50:57.237Z,16.40
2022-10-30T03:53:26.339Z,14.00
2022-10-30T03:55:57.340Z,18.03
2022-10-30T03:58:24.077Z,19.03
2022-10-30T04:00:50.786Z,15.53
2022-10-30T04:03:17.532Z,19.87
2022-10-30T04:05:44.371Z,18.57
2022-10-30T04:08:13.422Z,19.30
2022-10-30T04:10:47.947Z,20.47
2022-10-30T04:13:17.246Z,17.33
2022-10-30T04:15:44.118Z,21.33
2022-10-30T04:18:16.375Z,20.87
2022-10-30T04:20:43.713Z,15.87
2022-10-30T04:23:17.489Z,17.20
2022-10-30T04:25:44.719Z,16.33
2022-10-30T04:28:12.061Z,17.07
2022-10-30T04:30:39.772Z,17.13
2022-10-30T04:33:10.104Z,16.30
2022-10-30T04:35:37.697Z,19.47
2022-10-30T04:38:15.382Z,17.43
2022-10-30T04:40:43.355Z,17.10
2022-10-30T04:43:11.306Z,13.87
2022-10-30T04:45:38.707Z,15.50
2022-10-30T04:48:12.298Z,14.83
2022-10-30T04:50:43.370Z,15.97
2022-10-30T04:53:15.471Z,16.30
2022-10-30T04:55:44.330Z,13.27
2022-10-30T04:58:12.331Z,18.20
2022-10-30T05:00:39.169Z,14.83
2022-10-30T05:03:06.011Z,17.67
2022-10-30T05:05:32.931Z,13.70
2022-10-30T05:08:00.113Z,15.30
2022-10-30T05:10:27.376Z,16.77
2022-10-30T05:12:54.430Z,16.17
2022-10-30T05:15:21.349Z,16.10
2022-10-30T05:17:52.437Z,19.57
2022-10-30T05:20:19.510Z,34.83
2022-10-30T05:22:46.573Z,42.40
2022-10-30T05:25:13.575Z,43.90
2022-10-30T05:27:40.335Z,48.87
2022-10-30T05:30:07.702Z,61.80
2022-10-30T05:32:34.570Z,51.87
2022-10-30T05:35:01.546Z,26.47
2022-10-30T05:37:28.465Z,19.00
2022-10-30T05:39:55.206Z,19.13
2022-10-30T05:42:21.944Z,20.70
2022-10-30T05:45:00.884Z,14.07
2022-10-30T05:47:28.128Z,13.60
2022-10-30T05:49:54.893Z,24.43
2022-10-30T05:52:21.712Z,18.20
2022-10-30T05:54:48.429Z,19.83
2022-10-30T05:57:15.197Z,15.10
2022-10-30T05:59:41.888Z,20.30
2022-10-30T06:02:08.979Z,18.00
2022-10-30T06:04:38.448Z,18.80
2022-10-30T06:07:05.301Z,18.77
2022-10-30T06:09:32.163Z,21.67
2022-10-30T06:11:59.016Z,23.93
2022-10-30T06:14:25.854Z,14.37
2022-10-30T06:16:52.666Z,18.43
2022-10-30T06:19:21.814Z,17.90
2022-10-30T06:21:48.605Z,17.33
2022-10-30T06:24:15.448Z,20.20
2022-10-30T06:26:42.173Z,18.03
2022-10-30T06:29:08.845Z,16.13
2022-10-30T06:31:35.763Z,15.23
2022-10-30T06:34:02.613Z,20.93
2022-10-30T06:36:29.655Z,16.93
2022-10-30T06:38:56.590Z,20.97
2022-10-30T06:41:26.145Z,20.13
2022-10-30T06:43:57.296Z,17.60
2022-10-30T06:46:27.071Z,16.63
2022-10-30T06:48:57.875Z,17.47
2022-10-30T06:51:24.920Z,17.17
2022-10-30T06:53:51.605Z,18.37
2022-10-30T06:56:18.332Z,16.00
2022-10-30T06:58:45.120Z,17.07
2022-10-30T07:01:11.909Z,18.40
2022-10-30T07:03:38.722Z,17.63
2022-10-30T07:06:05.795Z,17.60
2022-10-30T07:08:32.701Z,21.93
2022-10-30T07:10:59.562Z,17.43
2022-10-30T07:13:29.094Z,19.53
2022-10-30T07:15:55.864Z,17.37
2022-10-30T07:18:22.571Z,21.77
2022-10-30T07:21:07.111Z,20.77
2022-10-30T07:23:33.840Z,21.23
2022-10-30T07:26:03.822Z,16.87
2022-10-30T07:28:31.687Z,20.70
2022-10-30T07:30:59.085Z,17.63
2022-10-30T07:33:26.218Z,19.47
2022-10-30T07:35:52.946Z,20.73
2022-10-30T07:38:19.660Z,15.27
2022-10-30T07:40:53.429Z,19.87
2022-10-30T07:43:20.216Z,21.90
2022-10-30T07:45:49.691Z,18.13
2022-10-30T07:48:16.554Z,17.40
2022-10-30T07:50:43.307Z,17.30
2022-10-30T07:53:10.063Z,20.47
2022-10-30T07:55:36.793Z,19.03
2022-10-30T07:58:03.535Z,19.77
2022-10-30T08:00:39.088Z,19.63
2022-10-30T08:03:06.581Z,21.67
2022-10-30T08:05:33.289Z,26.37
2022-10-30T08:08:00.266Z,22.40
2022-10-30T08:10:27.622Z,20.90
2022-10-30T08:12:54.560Z,23.63
2022-10-30T08:15:21.491Z,24.57
2022-10-30T08:17:49.780Z,15.40
2022-10-30T08:20:19.468Z,20.97
2022-10-30T08:22:51.303Z,19.67
2022-10-30T08:25:20.341Z,18.87
2022-10-30T08:27:58.570Z,18.20
2022-10-30T08:30:30.750Z,15.13
2022-10-30T08:33:02.842Z,20.77
2022-10-30T08:35:29.996Z,18.87
2022-10-30T08:37:58.007Z,20.00
2022-10-30T08:40:26.478Z,16.67
2022-10-30T08:42:55.040Z,20.70
2022-10-30T08:45:29.940Z,21.57
2022-10-30T08:48:01.155Z,20.00
2022-10-30T08:50:28.313Z,16.03
2022-10-30T08:52:55.250Z,23.47
2022-10-30T08:55:23.391Z,16.30
2022-10-30T08:57:50.119Z,19.33
2022-10-30T09:00:16.997Z,18.80
2022-10-30T09:02:45.421Z,18.67
2022-10-30T09:05:12.418Z,19.10
2022-10-30T09:07:39.168Z,16.07
2022-10-30T09:10:06.586Z,19.63
2022-10-30T09:12:33.457Z,16.50
2022-10-30T09:15:00.312Z,17.17
2022-10-30T09:17:27.208Z,14.53
2022-10-30T09:19:54.054Z,17.50
2022-10-30T09:22:20.786Z,19.83
2022-10-30T09:24:48.827Z,23.17
2022-10-30T09:27:15.706Z,19.50
2022-10-30T09:29:42.460Z,15.53
2022-10-30T09:32:10.558Z,18.83
2022-10-30T09:34:38.421Z,16.90
2022-10-30T09:37:05.483Z,18.23
2022-10-30T09:39:34.883Z,16.70
2022-10-30T09:42:22.309Z,16.93
2022-10-30T09:45:08.092Z,18.77
2022-10-30T09:47:44.300Z,18.97
2022-10-30T09:50:47.133Z,17.50
2022-10-30T09:53:23.783Z,15.97
2022-10-30T09:56:10.841Z,15.37
2022-10-30T09:59:01.693Z,15.70
2022-10-30T10:01:47.975Z,17.27
2022-10-30T10:04:27.018Z,19.47
2022-10-30T10:07:04.410Z,17.43
2022-10-30T10:09:34.616Z,20.77
2022-10-30T10:12:26.286Z,19.73
2022-10-30T10:14:55.498Z,19.63
2022-10-30T10:17:33.612Z,15.50
2022-10-30T10:20:02.115Z,18.33
2022-10-30T10:22:46.823Z,18.40
2022-10-30T10:25:17.178Z,17.97
2022-10-30T10:28:21.735Z,16.30
2022-10-30T10:31:04.437Z,15.57
2022-10-30T10:33:58.504Z,17.17
2022-10-30T10:36:54.154Z,14.93
2022-10-30T10:39:29.169Z,16.03
2022-10-30T10:42:08.277Z,14.80
2022-10-30T10:45:12.784Z,14.73
2022-10-30T10:48:08.279Z,13.63
2022-10-30T10:50:48.665Z,14.13
2022-10-30T10:53:22.692Z,13.50
2022-10-30T10:55:52.832Z,14.87
2022-10-30T10:58:36.469Z,13.10
2022-10-30T11:01:09.420Z,11.83
2022-10-30T11:03:52.734Z,15.30
2022-10-30T11:06:28.534Z,11.97
2022-10-30T11:09:14.371Z,14.40
2022-10-30T11:11:41.040Z,14.07
2022-10-30T11:14:24.846Z,18.33
2022-10-30T11:17:13.365Z,15.37
2022-10-30T11:19:40.297Z,16.10
2022-10-30T11:22:37.128Z,11.67
2022-10-30T11:25:26.804Z,11.70
2022-10-30T11:27:59.630Z,14.90
2022-10-30T11:30:28.918Z,14.07
2022-10-30T11:32:59.562Z,13.70
2022-10-30T11:35:26.701Z,14.70
2022-10-30T11:38:14.214Z,18.37
2022-10-30T11:40:48.625Z,15.97
2022-10-30T11:43:19.997Z,19.27
2022-10-30T11:45:47.313Z,15.48
2022-10-30T11:48:26.035Z,14.07
2022-10-30T11:51:00.052Z,14.13
2022-10-30T11:53:38.694Z,13.27
2022-10-30T11:56:18.696Z,15.27
2022-10-30T11:58:59.890Z,14.30
2022-10-30T12:01:35.837Z,14.83
2022-10-30T12:04:35.120Z,13.83
2022-10-30T12:07:16.986Z,15.20
2022-10-30T12:09:48.003Z,18.50
2022-10-30T12:12:38.477Z,12.63
2022-10-30T12:15:14.543Z,15.17
2022-10-30T12:17:50.334Z,15.70
2022-10-30T12:20:17.350Z,14.97
2022-10-30T12:22:44.223Z,15.27
2022-10-30T12:25:31.360Z,12.10
2022-10-30T12:28:05.596Z,20.03
2022-10-30T12:30:37.042Z,14.43
2022-10-30T12:33:09.281Z,20.47
2022-10-30T12:35:35.910Z,16.97
2022-10-30T12:38:07.323Z,14.23
2022-10-30T12:40:42.471Z,12.33
2022-10-30T12:43:24.328Z,15.40
2022-10-30T12:46:19.389Z,14.37
2022-10-30T12:49:16.497Z,14.10
2022-10-30T12:51:56.508Z,15.73
2022-10-30T12:54:33.987Z,15.37
2022-10-30T12:57:16.740Z,12.43
2022-10-30T13:00:05.238Z,15.97
2022-10-30T13:03:00.402Z,14.50
2022-10-30T13:05:34.345Z,15.77
2022-10-30T13:08:05.195Z,15.27
2022-10-30T13:10:44.324Z,16.60
2022-10-30T13:13:20.641Z,17.17
2022-10-30T13:15:51.409Z,15.23
2022-10-30T13:18:24.107Z,14.73
2022-10-30T13:21:03.116Z,16.13
2022-10-30T13:23:50.942Z,17.03
2022-10-30T13:26:17.707Z,13.20
2022-10-30T13:29:01.549Z,11.90
2022-10-30T13:31:52.938Z,14.13
2022-10-30T13:34:57.137Z,13.07
2022-10-30T13:37:49.623Z,12.53
2022-10-30T13:40:32.065Z,14.83
2022-10-30T13:43:30.091Z,16.07
2022-10-30T13:46:09.550Z,11.27
2022-10-30T13:48:52.802Z,11.87
2022-10-30T13:51:30.846Z,13.97
2022-10-30T13:54:20.629Z,13.67
2022-10-30T13:56:48.702Z,16.17
2022-10-30T13:59:47.205Z,10.20
2022-10-30T14:02:41.369Z,13.43
2022-10-30T14:05:14.306Z,17.50
2022-10-30T14:08:11.788Z,13.17
2022-10-30T14:10:47.407Z,12.30
2022-10-30T14:13:48.242Z,12.17
2022-10-30T14:16:53.838Z,12.27
2022-10-30T14:19:20.631Z,15.77
2022-10-30T14:21:58.306Z,13.57
2022-10-30T14:24:29.538Z,12.40
2022-10-30T14:27:05.625Z,13.30
2022-10-30T14:29:38.299Z,15.97
2022-10-30T14:32:14.051Z,16.43
2022-10-30T14:34:45.297Z,15.67
2022-10-30T14:37:13.097Z,18.17
2022-10-30T14:39:44.796Z,12.67
2022-10-30T14:42:38.689Z,13.13
2022-10-30T14:45:16.389Z,13.53
2022-10-30T14:47:55.545Z,15.27
2022-10-30T14:50:37.128Z,15.63
2022-10-30T14:53:55.228Z,12.90
2022-10-30T14:56:41.391Z,12.47
2022-10-30T14:59:13.893Z,15.47
2022-10-30T15:01:59.691Z,11.43
2022-10-30T15:05:12.846Z,10.70
2022-10-30T15:08:05.869Z,18.17
2022-10-30T15:10:36.627Z,16.83
2022-10-30T15:13:15.052Z,15.87
2022-10-30T15:15:43.096Z,15.33
2022-10-30T15:18:16.009Z,12.40
2022-10-30T15:20:42.913Z,16.67
2022-10-30T15:23:18.902Z,13.17
2022-10-30T15:25:55.023Z,11.87
2022-10-30T15:31:06.384Z,15.77
2022-10-30T15:33:37.648Z,10.23
2022-10-30T15:36:05.528Z,13.93
2022-10-30T15:38:32.420Z,13.90
2022-10-30T15:41:02.058Z,15.53
2022-10-30T15:43:35.057Z,19.00
2022-10-30T15:46:08.253Z,15.87
2022-10-30T15:48:35.503Z,13.93
2022-10-30T15:51:21.085Z,17.27
2022-10-30T15:53:54.716Z,16.03
2022-10-30T15:56:31.194Z,16.60
2022-10-30T15:59:06.471Z,16.27
2022-10-30T16:01:44.503Z,14.83
2022-10-30T16:04:18.570Z,14.03
2022-10-30T16:06:57.708Z,11.57
2022-10-30T16:09:25.833Z,11.10
2022-10-30T16:11:55.286Z,11.97
2022-10-30T16:14:29.854Z,9.07
2022-10-30T16:17:00.442Z,9.43
2022-10-30T16:19:30.555Z,13.47
2022-10-30T16:21:59.442Z,9.03
2022-10-30T16:24:32.473Z,6.13
2022-10-30T16:27:13.687Z,9.03
2022-10-30T16:29:41.007Z,6.63
2022-10-30T16:32:17.660Z,9.07
2022-10-30T16:34:46.118Z,6.53
2022-10-30T16:37:21.800Z,11.77
2022-10-30T16:39:50.881Z,6.77
2022-10-30T16:42:22.303Z,7.90
2022-10-30T16:45:07.594Z,9.93
2022-10-30T16:47:38.878Z,8.90
2022-10-30T16:50:07.368Z,9.67
2022-10-30T16:52:41.006Z,10.10
2022-10-30T16:55:20.178Z,9.97
2022-10-30T16:57:53.150Z,6.70
2022-10-30T17:00:25.903Z,7.37
2022-10-30T17:02:56.172Z,8.13
2022-10-30T17:05:30.247Z,10.30
2022-10-30T17:08:04.215Z,10.77
2022-10-30T17:10:36.933Z,6.90
2022-10-30T17:13:30.841Z,7.47
2022-10-30T17:15:57.827Z,8.63
2022-10-30T17:18:35.396Z,10.03
2022-10-30T17:21:11.755Z,8.90
2022-10-30T17:23:48.497Z,9.43
2022-10-30T17:26:16.751Z,10.37
2022-10-30T17:28:44.560Z,9.47
2022-10-30T17:31:40.127Z,11.67
2022-10-30T17:34:18.273Z,10.97
2022-10-30T17:36:46.613Z,10.93
2022-10-30T17:39:13.715Z,14.63
2022-10-30T17:41:41.129Z,10.47
2022-10-30T17:44:21.125Z,10.33
2022-10-30T17:46:47.930Z,10.53
2022-10-30T17:49:24.984Z,9.20
2022-10-30T17:51:51.817Z,7.07
2022-10-30T17:54:18.573Z,10.40
2022-10-30T17:56:45.427Z,9.70
2022-10-30T17:59:12.193Z,8.87
2022-10-30T18:01:40.999Z,8.53
2022-10-30T18:04:20.879Z,8.43
2022-10-30T18:06:51.333Z,9.77
2022-10-30T18:09:18.109Z,10.70
2022-10-30T18:11:44.876Z,10.13
2022-10-30T18:14:12.346Z,9.30
2022-10-30T18:16:39.423Z,10.23
2022-10-30T18:19:10.175Z,11.80
2022-10-30T18:21:37.298Z,9.37
2022-10-30T18:24:12.694Z,9.17
2022-10-30T18:26:40.900Z,9.70
2022-10-30T18:29:08.542Z,8.53
2022-10-30T18:31:36.105Z,7.73
2022-10-30T18:34:03.293Z,13.00
2022-10-30T18:36:30.895Z,10.87
2022-10-30T18:38:58.306Z,11.10
2022-10-30T18:41:36.650Z,11.10
2022-10-30T18:44:05.606Z,8.43
2022-10-30T18:46:34.085Z,8.73
2022-10-30T18:49:01.030Z,6.87
2022-10-30T18:51:28.556Z,7.73
2022-10-30T18:53:56.928Z,7.20
2022-10-30T18:56:29.026Z,10.00
2022-10-30T18:59:01.556Z,10.17
2022-10-30T19:01:32.617Z,14.20
2022-10-30T19:04:02.059Z,9.87
2022-10-30T19:06:29.148Z,8.93
2022-10-30T19:08:57.451Z,8.30
2022-10-30T19:11:25.400Z,11.27
2022-10-30T19:13:53.610Z,8.17
2022-10-30T19:16:21.706Z,11.63
2022-10-30T19:18:48.825Z,9.80
2022-10-30T19:21:24.945Z,13.27
2022-10-30T19:23:51.881Z,9.43
2022-10-30T19:26:18.762Z,12.13
2022-10-30T19:28:46.008Z,10.97
2022-10-30T19:31:17.604Z,10.50
2022-10-30T19:33:44.912Z,9.93
2022-10-30T19:36:36.297Z,10.27
2022-10-30T19:39:11.342Z,10.97
2022-10-30T19:41:38.951Z,14.77
2022-10-30T19:44:06.866Z,9.53
2022-10-30T19:46:33.709Z,10.70
2022-10-30T19:49:00.835Z,9.77
2022-10-30T19:51:28.622Z,8.80
2022-10-30T19:53:56.085Z,9.20
2022-10-30T19:56:23.483Z,8.63
2022-10-30T19:58:50.493Z,10.23
2022-10-30T20:01:17.594Z,9.37
2022-10-30T20:03:44.558Z,8.20
2022-10-30T20:06:14.703Z,12.03
2022-10-30T20:08:44.706Z,8.03
2022-10-30T20:11:11.553Z,11.00
2022-10-30T20:13:38.397Z,4.70
2022-10-30T20:16:06.105Z,4.57
2022-10-30T20:18:38.103Z,5.87
2022-10-30T20:21:13.252Z,7.40
2022-10-30T20:23:40.186Z,8.97
2022-10-30T20:26:28.124Z,5.23
2022-10-30T20:28:55.693Z,7.20
2022-10-30T20:31:22.663Z,8.37
2022-10-30T20:33:49.462Z,10.90
2022-10-30T20:36:16.297Z,12.40
2022-10-30T20:38:46.129Z,8.33
2022-10-30T20:41:28.130Z,9.67
2022-10-30T20:43:55.741Z,9.80
2022-10-30T20:46:22.627Z,10.27
2022-10-30T20:48:49.570Z,8.67
2022-10-30T20:51:16.574Z,12.40
2022-10-30T20:53:43.391Z,6.77
2022-10-30T20:56:11.602Z,9.47
2022-10-30T20:58:38.578Z,10.40
2022-10-30T21:01:05.694Z,9.97
2022-10-30T21:03:32.468Z,11.17
2022-10-30T21:06:01.649Z,10.70
2022-10-30T21:08:31.407Z,8.73
2022-10-30T21:11:01.140Z,9.30
2022-10-30T21:13:28.964Z,11.07
2022-10-30T21:16:00.741Z,9.10
2022-10-30T21:18:27.650Z,8.90
2022-10-30T21:20:54.434Z,10.87
2022-10-30T21:23:21.506Z,8.23
2022-10-30T21:25:48.375Z,9.57
2022-10-30T21:28:15.170Z,7.87
2022-10-30T21:30:41.851Z,7.13
2022-10-30T21:33:08.566Z,12.03
2022-10-30T21:35:35.337Z,7.57
2022-10-30T21:38:02.513Z,11.40
2022-10-30T21:40:29.310Z,5.40
2022-10-30T21:42:58.544Z,9.17
2022-10-30T21:45:28.171Z,7.93
2022-10-30T21:47:54.854Z,6.23
2022-10-30T21:50:21.618Z,9.90
2022-10-30T21:52:48.378Z,6.93
2022-10-30T21:55:15.194Z,8.17
2022-10-30T21:57:41.953Z,12.27
2022-10-30T22:00:09.181Z,7.63
2022-10-30T22:02:35.853Z,10.10
2022-10-30T22:05:02.645Z,9.90
2022-10-30T22:07:29.409Z,9.10
2022-10-30T22:09:56.361Z,10.27
2022-10-30T22:12:23.160Z,12.30
2022-10-30T22:14:49.835Z,9.80
2022-10-30T22:17:18.833Z,13.10
2022-10-30T22:19:45.500Z,9.93
2022-10-30T22:22:12.265Z,10.47
2022-10-30T22:24:39.111Z,13.00
2022-10-30T22:27:05.814Z,10.90
2022-10-30T22:29:32.486Z,11.70
2022-10-30T22:31:59.325Z,10.90
2022-10-30T22:34:26.050Z,13.33
2022-10-30T22:36:52.835Z,12.47
2022-10-30T22:39:19.909Z,11.23
2022-10-30T22:41:46.842Z,9.97
2022-10-30T22:44:17.347Z,15.40
2022-10-30T22:46:44.516Z,10.07
2022-10-30T22:49:14.100Z,14.03
2022-10-30T22:51:40.867Z,9.63
2022-10-30T22:54:12.254Z,12.30
2022-10-30T22:56:40.492Z,9.47
2022-10-30T22:59:10.697Z,19.57
2022-10-30T23:01:38.873Z,10.90
2022-10-30T23:04:07.687Z,13.57
2022-10-30T23:06:35.790Z,14.43
2022-10-30T23:09:05.787Z,14.03
2022-10-30T23:11:33.317Z,12.50
2022-10-30T23:14:00.114Z,10.57
2022-10-30T23:16:29.880Z,14.10
2022-10-30T23:18:58.384Z,12.20
2022-10-30T23:21:27.579Z,12.87
2022-10-30T23:23:57.587Z,14.23
2022-10-30T23:26:32.581Z,12.13
2022-10-30T23:29:00.456Z,14.90
2022-10-30T23:31:35.884Z,14.97
2022-10-30T23:34:09.463Z,13.77
2022-10-30T23:36:36.887Z,13.07
2022-10-30T23:39:07.007Z,13.87
2022-10-30T23:41:36.236Z,15.87
2022-10-30T23:44:05.726Z,15.83
2022-10-30T23:46:34.384Z,15.60
2022-10-30T23:49:02.484Z,14.50
2022-10-30T23:51:29.359Z,15.23
2022-10-30T23:53:56.044Z,14.73
2022-10-30T23:56:23.107Z,14.07
2022-10-30T23:58:51.473Z,18.03
